Time;durP1;ratioP1;P1;durP2;ratioP2;P2;SDS_P1;SDS_P2;PMS_P1;PMS_P2;Temp;Humidity;BMP_temperature;BMP_pressure;BME280_temperature;BME280_humidity;BME280_pressure;Samples;Min_cycle;Max_cycle;Signal;HPM_P1;HPM_P2
2021/11/19 00:01:48;;;;;;;2.42;1.48;;;18.20;53.30;;;;;;5015588;28;20030;-51
2021/11/19 00:04:14;;;;;;;3.28;1.65;;;18.30;53.40;;;;;;5016295;28;20021;-53
2021/11/19 00:06:39;;;;;;;4.57;1.52;;;18.20;53.30;;;;;;5016291;28;20017;-52
2021/11/19 00:09:06;;;;;;;3.28;1.55;;;18.30;53.40;;;;;;5016160;28;20014;-52
2021/11/19 00:11:34;;;;;;;2.40;1.52;;;18.20;53.40;;;;;;5016200;28;20036;-48
2021/11/19 00:14:01;;;;;;;2.45;1.58;;;18.30;53.50;;;;;;5016271;28;20037;-52
2021/11/19 00:16:27;;;;;;;3.55;1.40;;;18.30;53.40;;;;;;5015909;28;20034;-50
2021/11/19 00:18:54;;;;;;;2.35;1.60;;;18.20;53.40;;;;;;5015955;28;20109;-52
2021/11/19 00:21:21;;;;;;;3.47;1.42;;;18.30;53.50;;;;;;5016630;28;20030;-48
2021/11/19 00:23:48;;;;;;;3.40;1.38;;;18.20;53.40;;;;;;5015553;28;20014;-50
2021/11/19 00:26:15;;;;;;;1.92;1.45;;;18.20;53.40;;;;;;5015443;28;20101;-52
2021/11/19 00:28:41;;;;;;;4.15;1.70;;;18.20;53.40;;;;;;5015853;28;20010;-51
2021/11/19 00:31:07;;;;;;;2.67;1.60;;;18.20;53.50;;;;;;5014638;28;20014;-52
2021/11/19 00:33:37;;;;;;;5.28;1.63;;;18.20;53.50;;;;;;4997374;28;20426;-53
2021/11/19 00:36:04;;;;;;;2.60;1.40;;;18.20;53.50;;;;;;5014439;28;20054;-53
2021/11/19 00:38:30;;;;;;;2.55;1.50;;;18.20;53.50;;;;;;5015262;28;20025;-50
2021/11/19 00:40:59;;;;;;;2.58;1.45;;;18.20;53.60;;;;;;5014894;28;20022;-50
2021/11/19 00:43:25;;;;;;;2.85;1.58;;;18.20;53.60;;;;;;5014966;28;20050;-50
2021/11/19 00:45:51;;;;;;;2.42;1.40;;;18.20;53.60;;;;;;5015048;28;20068;-48
2021/11/19 00:48:18;;;;;;;2.55;1.33;;;18.20;53.60;;;;;;5015080;28;20018;-47
2021/11/19 00:50:57;;;;;;;3.28;1.50;;;18.20;53.60;;;;;;5014766;28;20049;-52
2021/11/19 00:53:23;;;;;;;3.53;1.30;;;18.20;53.60;;;;;;5014999;28;20073;-50
2021/11/19 00:55:48;;;;;;;2.30;1.23;;;18.20;53.70;;;;;;5014712;28;20029;-50
2021/11/19 00:58:15;;;;;;;2.78;1.23;;;18.20;53.70;;;;;;5014456;28;20040;-49
2021/11/19 01:01:00;;;;;;;2.38;1.40;;;18.20;53.70;;;;;;5014446;28;20032;-50
2021/11/19 01:03:26;;;;;;;3.17;1.45;;;18.20;53.70;;;;;;5014174;28;20018;-51
2021/11/19 01:05:52;;;;;;;3.42;1.40;;;18.10;53.70;;;;;;5013456;28;20117;-48
2021/11/19 01:08:19;;;;;;;2.28;1.40;;;18.10;53.80;;;;;;5014244;28;20018;-51
2021/11/19 01:10:46;;;;;;;3.13;1.55;;;18.10;53.80;;;;;;5014059;28;20045;-50
2021/11/19 01:13:13;;;;;;;3.60;1.38;;;18.10;53.80;;;;;;5013554;28;20089;-49
2021/11/19 01:15:40;;;;;;;2.13;1.30;;;18.10;53.80;;;;;;5013365;28;20045;-51
2021/11/19 01:18:13;;;;;;;1.65;1.30;;;18.10;53.80;;;;;;5013183;28;20014;-52
2021/11/19 01:20:53;;;;;;;2.67;1.50;;;18.10;53.80;;;;;;5013360;28;20034;-51
2021/11/19 01:23:21;;;;;;;4.28;1.40;;;18.10;53.80;;;;;;5013266;28;20010;-50
2021/11/19 01:26:01;;;;;;;1.73;1.08;;;18.10;53.90;;;;;;5013283;28;20020;-51
2021/11/19 01:28:27;;;;;;;2.58;1.35;;;18.10;54.40;;;;;;5013107;28;20065;-50
2021/11/19 01:30:57;;;;;;;3.67;1.70;;;18.10;53.90;;;;;;5012617;28;20458;-50
2021/11/19 01:33:23;;;;;;;1.90;1.17;;;18.10;53.90;;;;;;4995704;28;20021;-51
2021/11/19 01:35:49;;;;;;;3.22;1.50;;;18.10;53.90;;;;;;5013074;28;20021;-49
2021/11/19 01:38:16;;;;;;;2.97;1.50;;;18.10;54.00;;;;;;5012958;28;20026;-50
2021/11/19 01:40:57;;;;;;;1.70;1.08;;;18.10;54.00;;;;;;5012621;28;20022;-49
2021/11/19 01:43:23;;;;;;;2.30;1.42;;;18.10;54.00;;;;;;5013004;28;20068;-47
2021/11/19 01:45:53;;;;;;;2.50;1.25;;;18.10;54.00;;;;;;5015077;28;20473;-51
2021/11/19 01:48:23;;;;;;;2.67;1.70;;;18.10;54.00;;;;;;5016367;28;20018;-52
2021/11/19 01:51:05;;;;;;;1.90;1.20;;;18.10;54.10;;;;;;5017650;28;20033;-53
2021/11/19 01:53:40;;;;;;;2.30;1.50;;;18.10;54.10;;;;;;5017663;28;20076;-56
2021/11/19 01:56:31;;;;;;;2.38;1.35;;;18.10;54.10;;;;;;5016777;28;20018;-53
2021/11/19 01:59:08;;;;;;;2.15;1.70;;;18.00;54.10;;;;;;5004219;28;20037;-52
2021/11/19 02:01:38;;;;;;;2.22;1.50;;;18.10;54.20;;;;;;5017032;28;20030;-52
2021/11/19 02:04:10;;;;;;;1.63;1.20;;;18.10;54.20;;;;;;5016530;28;20029;-55
2021/11/19 02:07:04;;;;;;;2.22;1.25;;;18.00;54.20;;;;;;5016886;28;20030;-52
2021/11/19 02:09:30;;;;;;;1.88;1.23;;;18.00;54.30;;;;;;5014908;28;20478;-53
2021/11/19 02:12:08;;;;;;;2.60;1.38;;;18.00;54.30;;;;;;4998851;28;20072;-52
2021/11/19 02:14:48;;;;;;;1.88;1.30;;;18.00;54.30;;;;;;5000031;28;20065;-53
2021/11/19 02:17:14;;;;;;;1.80;1.38;;;18.00;54.20;;;;;;4998837;28;20017;-51
2021/11/19 02:19:44;;;;;;;2.35;1.13;;;18.00;54.30;;;;;;5016861;28;20413;-53
2021/11/19 02:22:26;;;;;;;1.95;1.25;;;18.00;54.30;;;;;;5016342;28;20022;-51
2021/11/19 02:25:12;;;;;;;3.13;1.35;;;18.00;54.30;;;;;;4999123;28;20046;-51
2021/11/19 02:27:51;;;;;;;2.58;1.35;;;18.00;54.40;;;;;;5016270;28;20041;-52
2021/11/19 02:30:23;;;;;;;2.97;1.30;;;18.00;54.30;;;;;;5016863;28;20022;-52
2021/11/19 02:32:53;;;;;;;1.98;1.25;;;18.00;54.30;;;;;;5017615;28;20018;-52
2021/11/19 02:35:22;;;;;;;2.03;1.17;;;18.00;54.40;;;;;;5016391;28;20097;-52
2021/11/19 02:37:52;;;;;;;2.00;1.33;;;18.00;54.30;;;;;;5016296;28;20003;-51
2021/11/19 02:40:20;;;;;;;2.22;1.38;;;18.00;54.40;;;;;;4998901;28;20260;-48
2021/11/19 02:42:54;;;;;;;1.90;1.35;;;18.00;54.40;;;;;;5016135;28;20013;-53
2021/11/19 02:45:25;;;;;;;1.75;1.00;;;18.00;54.40;;;;;;5016457;28;20017;-55
2021/11/19 02:47:51;;;;;;;2.08;1.48;;;18.00;54.40;;;;;;5016585;28;20466;-51
2021/11/19 02:50:18;;;;;;;2.35;1.20;;;18.00;54.40;;;;;;5017605;28;20018;-52
2021/11/19 02:52:45;;;;;;;2.33;1.52;;;18.00;54.40;;;;;;5017040;28;20025;-53
2021/11/19 02:55:18;;;;;;;2.05;1.35;;;18.00;54.40;;;;;;5016670;28;20492;-52
2021/11/19 02:57:44;;;;;;;2.03;1.27;;;17.90;54.40;;;;;;5015848;28;20010;-55
2021/11/19 03:00:13;;;;;;;5.35;1.40;;;18.00;54.50;;;;;;4998472;28;20020;-55
2021/11/19 03:02:39;;;;;;;1.83;1.40;;;18.00;54.40;;;;;;5016127;28;20033;-55
2021/11/19 03:05:11;;;;;;;2.03;1.20;;;18.00;54.50;;;;;;5015983;28;20481;-55
2021/11/19 03:07:37;;;;;;;1.40;1.20;;;17.90;54.40;;;;;;5016215;28;20060;-56
2021/11/19 03:10:09;;;;;;;2.35;1.48;;;17.90;54.40;;;;;;4998774;28;20045;-57
2021/11/19 03:12:36;;;;;;;2.95;1.27;;;18.00;54.50;;;;;;5016148;28;20021;-56
2021/11/19 03:15:07;;;;;;;1.50;1.10;;;17.90;54.40;;;;;;5015728;28;20022;-60
2021/11/19 03:17:34;;;;;;;1.25;1.13;;;17.90;54.40;;;;;;5016252;28;20033;-57
2021/11/19 03:20:00;;;;;;;1.88;1.10;;;17.90;54.40;;;;;;5015558;28;20026;-56
2021/11/19 03:22:27;;;;;;;2.33;1.42;;;17.90;54.50;;;;;;5015180;28;20026;-56
2021/11/19 03:24:54;;;;;;;2.75;1.55;;;17.90;54.50;;;;;;5015677;28;20034;-57
2021/11/19 03:27:20;;;;;;;1.83;1.27;;;17.90;54.60;;;;;;5015359;28;20006;-58
2021/11/19 03:29:46;;;;;;;2.67;1.30;;;17.90;54.50;;;;;;5015168;28;20080;-60
2021/11/19 03:32:14;;;;;;;2.03;1.30;;;17.90;54.50;;;;;;5014842;28;20065;-56
2021/11/19 03:34:40;;;;;;;2.15;1.23;;;17.90;54.60;;;;;;4996783;28;20025;-57
2021/11/19 03:37:05;;;;;;;1.75;1.17;;;17.90;54.60;;;;;;4996750;28;20386;-55
2021/11/19 03:39:31;;;;;;;1.63;1.25;;;17.90;54.70;;;;;;5014097;28;20101;-54
2021/11/19 03:41:58;;;;;;;3.55;1.30;;;17.90;54.70;;;;;;5013813;28;20117;-54
2021/11/19 03:44:44;;;;;;;1.52;1.10;;;17.90;54.60;;;;;;5014334;28;20054;-53
2021/11/19 03:47:33;;;;;;;2.40;1.48;;;17.90;54.70;;;;;;5015363;28;20006;-55
2021/11/19 03:49:58;;;;;;;1.63;1.30;;;17.90;54.70;;;;;;5002342;28;20033;-53
2021/11/19 03:52:31;;;;;;;3.72;1.30;;;17.90;54.70;;;;;;5016083;28;20025;-51
2021/11/19 03:54:58;;;;;;;1.55;1.00;;;17.90;54.80;;;;;;5015744;28;20052;-50
2021/11/19 03:57:24;;;;;;;2.13;1.30;;;17.90;54.70;;;;;;5014528;28;20014;-52
2021/11/19 03:59:51;;;;;;;2.05;1.52;;;17.90;54.70;;;;;;5014273;28;20042;-51
2021/11/19 04:02:17;;;;;;;2.28;1.40;;;17.90;54.70;;;;;;4996429;28;20423;-52
2021/11/19 04:04:43;;;;;;;1.70;1.30;;;17.90;54.80;;;;;;5014251;28;20046;-53
2021/11/19 04:07:11;;;;;;;1.95;1.35;;;17.90;54.90;;;;;;5014109;28;20006;-52
2021/11/19 04:09:37;;;;;;;2.00;1.27;;;17.90;54.90;;;;;;5014005;28;20014;-53
2021/11/19 04:12:03;;;;;;;2.08;1.10;;;17.90;54.90;;;;;;5014015;28;20426;-51
2021/11/19 04:14:29;;;;;;;1.42;1.05;;;17.90;54.90;;;;;;4996650;28;20096;-51
2021/11/19 04:16:55;;;;;;;1.80;1.20;;;18.00;54.80;;;;;;5013883;28;20052;-51
2021/11/19 04:19:22;;;;;;;2.20;1.08;;;18.00;55.00;;;;;;5014072;28;20014;-49
2021/11/19 04:21:49;;;;;;;2.13;1.25;;;18.00;54.50;;;;;;5013282;28;20160;-49
2021/11/19 04:24:17;;;;;;;1.90;1.20;;;18.00;54.40;;;;;;5013388;28;20021;-50
2021/11/19 04:26:44;;;;;;;1.88;1.35;;;18.10;54.30;;;;;;5014405;28;20018;-51
2021/11/19 04:29:10;;;;;;;2.15;1.27;;;18.20;54.20;;;;;;5014074;28;20021;-51
2021/11/19 04:31:36;;;;;;;1.75;1.00;;;18.20;54.00;;;;;;5013498;28;20026;-50
2021/11/19 04:34:05;;;;;;;1.20;1.00;;;18.30;53.90;;;;;;5013661;28;20482;-52
2021/11/19 04:36:31;;;;;;;2.17;1.13;;;18.40;53.80;;;;;;5013358;28;20018;-50
2021/11/19 04:38:57;;;;;;;1.75;1.00;;;18.50;53.50;;;;;;5013708;28;20034;-55
2021/11/19 04:41:22;;;;;;;2.90;1.40;;;18.60;53.40;;;;;;5013438;28;20489;-50
2021/11/19 04:43:48;;;;;;;1.27;1.00;;;18.70;53.10;;;;;;4979881;28;20417;-52
2021/11/19 04:46:14;;;;;;;2.25;1.23;;;18.80;52.80;;;;;;4979755;28;20464;-53
2021/11/19 04:48:40;;;;;;;1.25;0.90;;;18.90;52.60;;;;;;5013678;28;20034;-50
2021/11/19 04:51:15;;;;;;;2.15;1.10;;;19.00;52.40;;;;;;4995645;28;20580;-50
2021/11/19 04:53:41;;;;;;;2.85;1.30;;;19.10;52.10;;;;;;5013229;28;20076;-55
2021/11/19 04:56:07;;;;;;;2.17;1.10;;;19.20;51.70;;;;;;5013187;28;20425;-52
2021/11/19 04:58:33;;;;;;;1.38;1.02;;;19.30;51.50;;;;;;4996071;28;20026;-55
2021/11/19 05:01:05;;;;;;;1.08;0.90;;;19.40;51.30;;;;;;5013203;28;20026;-54
2021/11/19 05:03:31;;;;;;;2.13;1.10;;;19.60;51.10;;;;;;5012917;28;20093;-53
2021/11/19 05:05:58;;;;;;;1.98;1.10;;;19.60;50.80;;;;;;5013077;28;20054;-54
2021/11/19 05:08:24;;;;;;;1.35;1.02;;;19.80;50.60;;;;;;5013279;28;20030;-54
2021/11/19 05:10:52;;;;;;;1.83;1.10;;;19.90;50.40;;;;;;5012989;28;20018;-54
2021/11/19 05:13:18;;;;;;;1.95;1.10;;;19.90;50.10;;;;;;5013370;28;20014;-55
2021/11/19 05:15:45;;;;;;;2.58;1.20;;;20.00;49.90;;;;;;5013529;28;20470;-51
2021/11/19 05:18:11;;;;;;;1.80;1.30;;;20.10;49.70;;;;;;5014375;28;20466;-51
2021/11/19 05:20:37;;;;;;;1.60;1.10;;;20.20;49.50;;;;;;5014688;28;20042;-52
2021/11/19 05:23:04;;;;;;;1.83;1.08;;;20.30;49.40;;;;;;5017101;28;20101;-52
2021/11/19 05:25:32;;;;;;;1.63;1.15;;;20.40;49.20;;;;;;5017424;28;20022;-53
2021/11/19 05:27:59;;;;;;;1.50;0.98;;;20.40;49.10;;;;;;5017477;28;20010;-54
2021/11/19 05:30:26;;;;;;;2.10;0.98;;;20.60;49.00;;;;;;5017458;28;20033;-52
2021/11/19 05:32:53;;;;;;;1.00;0.90;;;20.60;48.80;;;;;;4999918;28;20049;-51
2021/11/19 05:35:19;;;;;;;1.35;0.98;;;20.60;48.60;;;;;;5016868;28;20374;-49
2021/11/19 05:37:45;;;;;;;1.00;0.90;;;20.70;48.60;;;;;;5017504;28;20007;-52
2021/11/19 05:40:13;;;;;;;1.45;1.08;;;20.80;48.50;;;;;;5017312;28;20018;-48
2021/11/19 05:42:39;;;;;;;0.95;0.80;;;20.80;48.40;;;;;;5017129;28;20557;-53
2021/11/19 05:45:05;;;;;;;1.30;0.88;;;20.90;48.30;;;;;;5017168;28;20041;-52
2021/11/19 05:47:32;;;;;;;1.30;0.90;;;20.90;48.20;;;;;;5017472;28;20041;-49
2021/11/19 05:50:00;;;;;;;1.88;1.10;;;20.90;48.10;;;;;;5017312;28;20014;-49
2021/11/19 05:52:27;;;;;;;1.48;1.23;;;21.00;48.10;;;;;;5016538;28;20536;-52
2021/11/19 05:54:53;;;;;;;0.98;0.85;;;21.00;48.00;;;;;;4999834;28;20033;-52
2021/11/19 05:57:20;;;;;;;1.98;0.95;;;21.10;47.90;;;;;;5017089;28;20030;-52
2021/11/19 05:59:45;;;;;;;1.02;0.95;;;21.10;47.80;;;;;;5017324;28;20056;-48
2021/11/19 06:02:15;;;;;;;0.90;0.73;;;21.10;47.80;;;;;;5017626;28;20030;-51
2021/11/19 06:04:41;;;;;;;0.90;0.90;;;21.20;47.70;;;;;;5016775;28;20062;-52
2021/11/19 06:07:07;;;;;;;1.25;0.98;;;21.20;47.60;;;;;;5016786;28;20022;-52
2021/11/19 06:09:35;;;;;;;1.25;0.82;;;21.30;47.70;;;;;;5017526;28;20080;-50
2021/11/19 06:12:04;;;;;;;1.55;1.20;;;21.30;47.50;;;;;;5017175;28;20080;-50
2021/11/19 06:14:54;;;;;;;1.77;1.20;;;21.30;47.50;;;;;;5016552;28;20045;-52
2021/11/19 06:17:30;;;;;;;1.05;0.80;;;21.40;47.50;;;;;;5017158;28;20042;-52
2021/11/19 06:19:58;;;;;;;1.65;1.10;;;21.40;47.40;;;;;;5015894;28;20024;-47
2021/11/19 06:22:33;;;;;;;2.13;1.10;;;21.40;47.40;;;;;;5016993;28;20029;-51
2021/11/19 06:24:59;;;;;;;1.70;1.00;;;21.40;47.40;;;;;;5016853;28;20025;-49
2021/11/19 06:27:33;;;;;;;1.42;0.98;;;21.40;47.40;;;;;;4998716;28;20042;-51
2021/11/19 06:29:59;;;;;;;3.55;1.10;;;21.50;47.40;;;;;;5015844;28;20025;-52
2021/11/19 06:32:25;;;;;;;1.30;1.00;;;21.50;47.40;;;;;;5015176;28;20014;-50
2021/11/19 06:34:51;;;;;;;1.27;1.00;;;21.50;47.30;;;;;;5015240;28;20100;-48
2021/11/19 06:37:17;;;;;;;1.17;0.82;;;21.50;47.40;;;;;;5015701;28;20014;-48
2021/11/19 06:39:43;;;;;;;1.10;1.00;;;21.50;47.40;;;;;;5015413;28;20464;-53
2021/11/19 06:42:09;;;;;;;0.93;0.80;;;21.60;47.30;;;;;;5015162;28;20036;-48
2021/11/19 06:44:36;;;;;;;1.10;0.90;;;21.60;47.20;;;;;;4997781;28;20007;-48
2021/11/19 06:47:02;;;;;;;1.25;0.90;;;21.60;47.20;;;;;;5016009;28;20022;-51
2021/11/19 06:49:27;;;;;;;1.83;0.90;;;21.60;47.20;;;;;;5015894;28;20022;-49
2021/11/19 06:51:53;;;;;;;1.50;0.93;;;21.60;47.30;;;;;;4998157;28;20022;-48
2021/11/19 06:54:19;;;;;;;1.95;1.30;;;21.70;47.40;;;;;;4998842;28;20201;-52
2021/11/19 06:56:44;;;;;;;1.15;0.85;;;21.70;47.40;;;;;;5015848;28;20065;-50
2021/11/19 06:59:10;;;;;;;1.10;0.90;;;21.70;47.40;;;;;;5016169;28;20362;-49
2021/11/19 07:01:36;;;;;;;1.25;0.88;;;21.70;47.40;;;;;;4981992;28;20104;-50
2021/11/19 07:04:02;;;;;;;2.40;1.00;;;21.70;47.30;;;;;;4997730;28;20070;-52
2021/11/19 07:06:30;;;;;;;3.97;0.90;;;21.70;47.30;;;;;;5015302;28;20081;-51
2021/11/19 07:08:56;;;;;;;1.40;0.90;;;21.70;47.20;;;;;;5014392;28;20045;-49
2021/11/19 07:11:23;;;;;;;1.10;0.90;;;21.80;47.30;;;;;;5014348;28;20014;-48
2021/11/19 07:13:50;;;;;;;1.30;0.90;;;21.80;47.10;;;;;;4996883;28;20020;-50
2021/11/19 07:16:17;;;;;;;1.75;0.93;;;21.90;47.10;;;;;;5014244;28;20048;-53
2021/11/19 07:18:43;;;;;;;1.80;1.00;;;21.90;47.10;;;;;;5013848;28;20075;-48
2021/11/19 07:21:10;;;;;;;3.33;2.30;;;21.90;47.10;;;;;;5012237;28;20048;-47
2021/11/19 07:23:35;;;;;;;9.60;5.32;;;21.80;48.90;;;;;;4994881;28;20006;-48
2021/11/19 07:26:01;;;;;;;13.02;5.40;;;20.40;52.80;;;;;;5012020;28;20022;-50
2021/11/19 07:28:29;;;;;;;17.08;7.97;;;19.50;56.30;;;;;;5012532;28;20010;-47
2021/11/19 07:30:58;;;;;;;11.02;9.15;;;19.10;59.10;;;;;;5012649;28;20022;-44
2021/11/19 07:33:24;;;;;;;14.43;9.52;;;18.40;60.50;;;;;;4995850;28;20098;-43
2021/11/19 07:35:50;;;;;;;10.77;9.20;;;18.10;63.20;;;;;;4995547;28;20045;-47
2021/11/19 07:38:17;;;;;;;15.93;9.30;;;18.50;61.50;;;;;;5013449;28;20068;-47
2021/11/19 07:40:44;;;;;;;14.02;9.43;;;18.80;61.80;;;;;;4995298;28;20532;-48
2021/11/19 07:43:11;;;;;;;12.73;11.02;;;18.60;61.90;;;;;;5012478;28;20038;-49
2021/11/19 07:45:37;;;;;;;16.25;9.60;;;18.10;62.00;;;;;;4979079;28;20556;-45
2021/11/19 07:48:11;;;;;;;16.02;10.27;;;18.30;63.40;;;;;;5013166;28;20093;-45
2021/11/19 07:50:37;;;;;;;12.68;10.93;;;18.40;61.60;;;;;;4996408;28;20010;-45
2021/11/19 07:53:03;;;;;;;19.02;9.70;;;17.90;62.80;;;;;;5013274;28;20087;-45
2021/11/19 07:55:29;;;;;;;16.17;10.63;;;18.00;64.70;;;;;;5013374;28;20018;-46
2021/11/19 07:57:55;;;;;;;16.20;10.65;;;17.70;64.70;;;;;;5012786;28;20014;-46
2021/11/19 08:00:36;;;;;;;13.63;10.98;;;17.30;64.60;;;;;;5012658;28;20101;-46
2021/11/19 08:03:02;;;;;;;17.27;10.77;;;17.10;64.90;;;;;;5013084;28;20040;-44
2021/11/19 08:05:28;;;;;;;22.08;11.30;;;17.30;66.10;;;;;;5012545;28;20367;-48
2021/11/19 08:07:53;;;;;;;17.20;10.55;;;17.50;65.00;;;;;;4994854;28;20022;-44
2021/11/19 08:10:19;;;;;;;14.27;11.00;;;17.70;64.20;;;;;;4994482;28;20470;-46
2021/11/19 08:12:46;;;;;;;17.88;11.35;;;17.40;63.90;;;;;;5012126;28;20018;-43
2021/11/19 08:15:13;;;;;;;12.40;9.95;;;17.30;64.30;;;;;;4995159;28;20044;-45
2021/11/19 08:17:44;;;;;;;12.48;10.60;;;17.00;64.80;;;;;;5012688;28;20064;-44
2021/11/19 08:20:14;;;;;;;12.18;9.70;;;16.90;65.80;;;;;;4978771;28;20022;-47
2021/11/19 08:22:40;;;;;;;16.98;10.60;;;17.10;65.70;;;;;;4994276;28;20037;-44
2021/11/19 08:25:06;;;;;;;14.50;10.35;;;16.90;65.50;;;;;;4977765;28;20068;-44
2021/11/19 08:27:35;;;;;;;11.93;10.27;;;16.90;65.60;;;;;;5011989;28;20132;-45
2021/11/19 08:30:04;;;;;;;11.43;10.20;;;16.50;66.60;;;;;;5011726;28;20461;-44
2021/11/19 08:32:31;;;;;;;13.48;11.30;;;16.60;66.70;;;;;;5011893;28;20018;-42
2021/11/19 08:34:57;;;;;;;13.45;10.35;;;16.40;67.60;;;;;;4993731;28;20052;-44
2021/11/19 08:37:25;;;;;;;13.80;9.63;;;16.60;68.10;;;;;;5011403;28;20029;-43
2021/11/19 08:39:51;;;;;;;13.25;10.20;;;16.80;66.90;;;;;;5011662;28;20017;-44
2021/11/19 08:42:18;;;;;;;12.68;10.07;;;16.70;66.60;;;;;;4977662;28;20049;-44
2021/11/19 08:44:45;;;;;;;15.02;10.32;;;16.40;68.00;;;;;;5011642;28;20018;-45
2021/11/19 08:47:11;;;;;;;12.05;9.57;;;16.60;67.60;;;;;;5011559;28;20017;-45
2021/11/19 08:49:37;;;;;;;13.77;8.85;;;16.60;67.60;;;;;;5011504;28;20033;-43
2021/11/19 08:52:09;;;;;;;12.35;9.68;;;16.60;68.90;;;;;;5011262;28;20084;-43
2021/11/19 08:54:35;;;;;;;11.57;10.10;;;16.40;68.60;;;;;;4994148;28;20041;-43
2021/11/19 08:57:05;;;;;;;11.95;10.48;;;16.30;68.00;;;;;;4997906;28;20084;-43
2021/11/19 08:59:34;;;;;;;12.82;10.32;;;16.20;68.70;;;;;;5015433;28;20017;-42
2021/11/19 09:02:02;;;;;;;11.52;9.40;;;16.20;68.80;;;;;;5016332;28;20072;-48
2021/11/19 09:04:28;;;;;;;11.82;8.73;;;16.80;67.70;;;;;;4998882;28;20050;-47
2021/11/19 09:06:54;;;;;;;11.98;7.15;;;16.80;67.70;;;;;;5016820;28;20386;-48
2021/11/19 09:09:20;;;;;;;9.38;6.43;;;17.80;64.60;;;;;;4983280;28;20089;-48
2021/11/19 09:11:47;;;;;;;10.65;5.70;;;18.40;62.10;;;;;;5017271;28;20161;-44
2021/11/19 09:14:13;;;;;;;8.23;5.70;;;19.10;59.90;;;;;;4998664;28;20105;-46
2021/11/19 09:16:42;;;;;;;9.98;7.32;;;19.50;58.20;;;;;;5015130;28;20494;-45
2021/11/19 09:19:16;;;;;;;12.18;8.88;;;18.70;59.30;;;;;;5016417;28;20450;-47
2021/11/19 09:21:45;;;;;;;11.05;9.38;;;17.90;62.00;;;;;;4999090;28;20026;-48
2021/11/19 09:24:17;;;;;;;14.18;10.30;;;17.30;64.10;;;;;;5016791;28;20093;-46
2021/11/19 09:27:10;;;;;;;14.43;9.98;;;16.40;66.90;;;;;;5000218;28;20020;-49
2021/11/19 09:29:41;;;;;;;10.98;9.88;;;16.40;68.00;;;;;;5004781;28;20044;-47
2021/11/19 09:32:08;;;;;;;10.13;9.10;;;16.20;68.40;;;;;;4981812;28;20044;-45
2021/11/19 09:34:36;;;;;;;12.38;10.13;;;16.40;68.30;;;;;;4981589;28;20026;-49
2021/11/19 09:37:04;;;;;;;17.23;11.07;;;16.40;68.40;;;;;;5015457;28;20414;-44
2021/11/19 09:39:30;;;;;;;12.40;9.30;;;16.30;68.30;;;;;;5015401;28;20026;-51
2021/11/19 09:42:20;;;;;;;15.43;9.93;;;16.30;68.20;;;;;;5015252;28;20470;-45
2021/11/19 09:45:01;;;;;;;13.68;10.27;;;16.20;69.00;;;;;;4982866;28;20018;-46
2021/11/19 09:47:42;;;;;;;14.07;9.60;;;15.90;69.70;;;;;;5015543;28;20026;-48
2021/11/19 09:50:32;;;;;;;11.88;9.63;;;15.90;70.10;;;;;;4997848;28;20030;-45
2021/11/19 09:53:33;;;;;;;12.43;10.35;;;15.90;70.20;;;;;;5015096;28;20018;-46
2021/11/19 09:56:17;;;;;;;13.45;8.52;;;15.80;70.60;;;;;;4983479;28;20014;-46
2021/11/19 09:59:13;;;;;;;10.77;8.38;;;16.00;70.40;;;;;;4997207;28;20037;-46
2021/11/19 10:01:44;;;;;;;10.68;8.90;;;16.30;69.80;;;;;;5014876;28;20033;-45
2021/11/19 10:04:38;;;;;;;15.25;10.05;;;16.10;70.00;;;;;;5021838;28;20051;-46
2021/11/19 10:07:24;;;;;;;14.50;9.68;;;15.80;70.60;;;;;;5053318;28;20033;-44
2021/11/19 10:10:16;;;;;;;13.45;9.07;;;15.90;71.10;;;;;;5021155;28;20020;-48
2021/11/19 10:12:49;;;;;;;10.40;9.07;;;16.20;70.10;;;;;;5039886;28;20013;-46
2021/11/19 10:15:19;;;;;;;14.57;9.75;;;16.50;69.00;;;;;;5054715;28;20028;-43
2021/11/19 10:18:04;;;;;;;11.63;9.35;;;16.20;69.10;;;;;;5037304;28;20421;-45
2021/11/19 10:20:58;;;;;;;12.43;9.30;;;16.20;69.80;;;;;;5055570;28;20480;-45
2021/11/19 10:23:27;;;;;;;10.65;8.93;;;16.40;69.50;;;;;;5040101;28;20044;-47
2021/11/19 10:26:15;;;;;;;13.13;10.13;;;16.40;69.40;;;;;;5037276;28;20025;-44
2021/11/19 10:28:46;;;;;;;12.65;9.07;;;16.10;69.80;;;;;;5055031;28;20496;-45
2021/11/19 10:31:14;;;;;;;12.18;9.52;;;16.40;69.30;;;;;;5037383;28;20021;-44
2021/11/19 10:34:00;;;;;;;12.52;8.57;;;16.10;69.70;;;;;;5054604;28;20017;-43
2021/11/19 10:36:31;;;;;;;11.52;8.82;;;16.50;69.70;;;;;;5004450;28;20044;-47
2021/11/19 10:39:06;;;;;;;15.00;7.72;;;16.40;69.50;;;;;;5054144;28;20048;-48
2021/11/19 10:41:34;;;;;;;15.07;9.10;;;16.70;68.20;;;;;;5036796;28;20044;-45
2021/11/19 10:44:05;;;;;;;11.85;9.25;;;16.60;68.50;;;;;;5055129;28;20040;-45
2021/11/19 10:46:49;;;;;;;13.02;8.90;;;16.60;68.50;;;;;;5054229;28;20017;-46
2021/11/19 10:49:34;;;;;;;11.90;9.00;;;16.60;68.90;;;;;;5035751;28;20017;-44
2021/11/19 10:52:14;;;;;;;11.30;8.70;;;16.60;68.10;;;;;;5036019;28;20500;-45
2021/11/19 10:55:08;;;;;;;13.23;8.15;;;16.70;68.40;;;;;;5035930;28;20119;-49
2021/11/19 10:57:36;;;;;;;10.20;8.40;;;17.10;67.30;;;;;;5036919;28;20029;-42
2021/11/19 11:00:43;;;;;;;8.93;7.03;;;16.60;67.90;;;;;;5056260;28;20021;-43
2021/11/19 11:03:15;;;;;;;7.13;5.85;;;17.20;67.20;;;;;;5055886;28;20060;-44
2021/11/19 11:05:42;;;;;;;6.55;5.10;;;17.90;64.40;;;;;;5056043;28;20036;-44
2021/11/19 11:08:33;;;;;;;11.02;4.57;;;18.50;62.40;;;;;;5037609;28;20056;-43
2021/11/19 11:11:07;;;;;;;7.38;4.32;;;19.00;60.80;;;;;;5038166;28;20017;-44
2021/11/19 11:13:51;;;;;;;8.27;4.05;;;19.40;59.40;;;;;;5037537;28;20071;-46
2021/11/19 11:16:17;;;;;;;5.43;3.97;;;19.50;58.50;;;;;;5056450;28;20017;-46
2021/11/19 11:19:18;;;;;;;7.97;3.47;;;19.70;58.10;;;;;;5036665;28;20021;-47
2021/11/19 11:21:50;;;;;;;5.53;3.40;;;19.90;57.40;;;;;;5038000;28;20079;-45
2021/11/19 11:24:35;;;;;;;6.80;3.65;;;20.20;56.80;;;;;;5055711;28;20025;-45
2021/11/19 11:27:22;;;;;;;6.47;3.05;;;20.20;56.70;;;;;;5054523;28;20088;-46
2021/11/19 11:29:53;;;;;;;7.18;3.10;;;20.30;56.20;;;;;;5054120;28;20028;-47
2021/11/19 11:32:22;;;;;;;5.25;3.38;;;20.30;56.30;;;;;;5035731;28;20019;-46
2021/11/19 11:35:05;;;;;;;6.03;3.05;;;20.50;55.50;;;;;;5054122;28;20025;-45
2021/11/19 11:37:56;;;;;;;4.22;2.95;;;20.50;55.20;;;;;;5054113;28;20043;-45
2021/11/19 11:40:39;;;;;;;5.38;4.88;;;20.50;55.20;;;;;;5019351;28;20029;-44
2021/11/19 11:43:22;;;;;;;7.60;5.07;;;19.80;56.20;;;;;;5053892;28;20485;-45
2021/11/19 11:45:56;;;;;;;7.68;6.20;;;19.10;59.20;;;;;;5053226;28;20013;-45
2021/11/19 11:48:38;;;;;;;11.60;8.00;;;18.70;59.70;;;;;;5052488;28;20096;-50
2021/11/19 11:51:19;;;;;;;14.77;8.45;;;17.80;63.40;;;;;;5052736;28;20029;-50
2021/11/19 11:54:10;;;;;;;13.57;7.05;;;17.20;66.10;;;;;;5036083;28;20024;-52
2021/11/19 11:56:44;;;;;;;7.22;5.18;;;18.10;66.00;;;;;;5036823;28;20025;-45
2021/11/19 11:59:11;;;;;;;13.00;5.65;;;19.10;64.00;;;;;;5052176;28;20017;-46
2021/11/19 12:01:43;;;;;;;16.00;5.82;;;19.80;62.20;;;;;;5052833;28;20032;-59
2021/11/19 12:04:21;;;;;;;11.77;4.85;;;20.30;60.60;;;;;;5051508;28;20083;-49
2021/11/19 12:07:09;;;;;;;12.02;4.88;;;20.60;60.60;;;;;;5033692;28;20108;-49
2021/11/19 12:10:10;;;;;;;9.15;4.65;;;21.00;60.10;;;;;;5051813;28;20009;-45
2021/11/19 12:12:44;;;;;;;12.57;4.20;;;21.30;59.50;;;;;;5017232;28;20045;-47
2021/11/19 12:15:33;;;;;;;12.65;4.45;;;21.40;59.20;;;;;;5034086;28;20009;-45
2021/11/19 12:18:26;;;;;;;11.35;4.68;;;21.70;59.10;;;;;;5033844;28;20021;-50
2021/11/19 12:21:13;;;;;;;16.60;4.50;;;21.70;59.20;;;;;;5051184;28;20013;-49
2021/11/19 12:24:17;;;;;;;17.98;4.85;;;21.90;59.00;;;;;;5033120;28;20021;-48
2021/11/19 12:26:53;;;;;;;12.77;4.18;;;21.70;59.50;;;;;;5051229;28;20094;-46
2021/11/19 12:29:47;;;;;;;11.30;4.10;;;21.80;60.40;;;;;;5050818;28;20171;-46
2021/11/19 12:32:57;;;;;;;19.95;4.93;;;22.00;59.80;;;;;;5029183;28;20166;-48
2021/11/19 12:35:42;;;;;;;8.38;3.95;;;22.20;59.90;;;;;;5051255;28;20044;-49
2021/11/19 12:38:17;;;;;;;34.08;6.25;;;22.30;59.20;;;;;;5034119;28;20139;-49
2021/11/19 12:40:52;;;;;;;18.50;7.13;;;21.80;56.50;;;;;;5049884;28;20381;-51
2021/11/19 12:43:31;;;;;;;12.77;7.65;;;20.60;56.30;;;;;;5050568;28;20036;-50
2021/11/19 12:46:17;;;;;;;13.18;7.05;;;19.60;58.80;;;;;;5050780;28;20017;-47
2021/11/19 12:49:05;;;;;;;11.27;6.03;;;19.30;60.70;;;;;;5036778;28;20079;-48
2021/11/19 12:51:41;;;;;;;8.70;5.80;;;19.70;60.60;;;;;;5051712;28;20021;-50
2021/11/19 12:54:30;;;;;;;10.90;5.72;;;20.20;59.50;;;;;;5051625;28;20005;-52
2021/11/19 12:56:59;;;;;;;9.43;5.13;;;20.40;59.30;;;;;;5051619;28;20045;-52
2021/11/19 12:59:39;;;;;;;13.18;4.78;;;20.50;59.80;;;;;;5051641;28;20550;-54
2021/11/19 13:02:27;;;;;;;18.58;5.90;;;20.80;59.10;;;;;;5051168;28;20115;-50
2021/11/19 13:05:00;;;;;;;19.10;6.88;;;21.00;58.70;;;;;;5050763;28;20045;-51
2021/11/19 13:07:34;;;;;;;21.02;5.57;;;21.10;58.30;;;;;;5032898;28;20024;-48